Bungo Princess — 3FXV8 — position and weather

sailwx.info

Track history (hours):
 
Tides and Currents Weather Stations Pressure Air Temp Water Temp Dewpoint Dewpoint Depression Visibility Wind Speed Wind Dir Waves Ship Positions

Bungo Princess

Last reported at 2017-Nov-04 00:08 UTC. Time now 2017-Nov-18 17:53 UTC.
Position N 31°02' E 122°20'.
Warning: this ship's position is 14 days out of date.

Length 103 m; draft 6.3 m.

Type: Cargo ship. MMSI: 355074054.

Date/timePositionNaut miles runAvg speedWind from/ knotsBaromVisibWave heightAir tempDewpointWater temp
2017-Nov-04 00:08N 31°02' E 122°20'3 9.3
2017-Nov-03 23:49N 31°02' E 122°16'4 9.1
2017-Nov-03 23:26N 31°02' E 122°12'610.6
2017-Nov-03 22:54N 31°04' E 122°06'3 7.9
2017-Nov-03 22:30N 31°05' E 122°02'4 8.0
2017-Nov-03 22:01N 31°06' E 121°58'4 8.3
2017-Nov-03 21:30N 31°08' E 121°54'5 9.5
2017-Nov-03 21:00N 31°11' E 121°50'5 9.5
2017-Nov-03 20:30N 31°15' E 121°46'5 9.5
2017-Nov-03 20:00N 31°19' E 121°42'4 8.4
2017-Nov-03 19:31N 31°21' E 121°39'4 7.9
2017-Nov-03 19:00N 31°23' E 121°34'4 7.4
2017-Nov-03 18:31N 31°23' E 121°30'1 2.4
2017-Nov-03 18:00N 31°22' E 121°30'0 0.0
2017-Nov-03 17:28N 31°22' E 121°30'0 0.1
2017-Nov-03 17:01N 31°22' E 121°30'0 0.1
2017-Nov-03 16:28N 31°22' E 121°30'0 0.0
2017-Nov-03 15:58N 31°22' E 121°30'0 0.0
2017-Nov-03 15:16N 31°22' E 121°30'0 0.0
2017-Nov-03 14:55N 31°22' E 121°30'0 0.0
2017-Nov-03 14:31N 31°22' E 121°30'0 0.0
2017-Nov-03 13:58N 31°22' E 121°30'0 0.0
2017-Nov-03 13:28N 31°22' E 121°30'0 0.0
2017-Nov-03 13:01N 31°22' E 121°30'0 0.0
2017-Nov-03 12:25N 31°22' E 121°30'0 0.1
2017-Nov-03 11:52N 31°22' E 121°30'0 0.1
2017-Nov-03 11:22N 31°22' E 121°30'0 0.0
2017-Nov-03 10:58N 31°22' E 121°30'0 0.1
2017-Nov-03 10:28N 31°22' E 121°30'0 0.0
2017-Nov-03 09:52N 31°22' E 121°30'0 0.0
2017-Nov-03 09:25N 31°22' E 121°30'0 0.0
2017-Nov-03 08:58N 31°22' E 121°30'0 0.1
2017-Nov-03 08:22N 31°22' E 121°30'0 0.1
2017-Nov-03 07:58N 31°22' E 121°30'0 0.1
2017-Nov-03 07:28N 31°22' E 121°30'0 0.1
2017-Nov-03 06:58N 31°22' E 121°30'0 0.6
2017-Nov-03 06:30N 31°22' E 121°30'2 4.4
2017-Nov-03 06:00N 31°24' E 121°32'3 6.5
2017-Nov-03 05:30N 31°26' E 121°29'0 0.2
2017-Nov-03 04:59N 31°26' E 121°29'0 0.0
2017-Nov-03 04:29N 31°26' E 121°29'0 0.0
2017-Nov-03 03:59N 31°26' E 121°29'0 0.1
2017-Nov-03 03:29N 31°26' E 121°29'0 0.1
2017-Nov-03 02:59N 31°26' E 121°29'0 0.0
2017-Nov-03 02:29N 31°26' E 121°29'0 0.0
2017-Nov-03 01:59N 31°26' E 121°29'0 0.0
2017-Nov-03 01:29N 31°26' E 121°29'0 0.0
2017-Nov-03 00:29N 31°26' E 121°29'0 0.0
2017-Nov-02 23:56N 31°26' E 121°29'0 0.0
2017-Nov-02 23:29N 31°26' E 121°29'0 0.0
2017-Nov-02 22:56N 31°26' E 121°29'0 0.1
2017-Nov-02 22:29N 31°26' E 121°29'0 0.0
2017-Nov-02 21:59N 31°26' E 121°29'0 0.0
2017-Nov-02 21:29N 31°26' E 121°29'0 0.1
2017-Nov-02 20:56N 31°26' E 121°29'0 0.0
2017-Nov-02 20:29N 31°26' E 121°29'0 0.0
2017-Nov-02 19:59N 31°26' E 121°29'0 0.1
2017-Nov-02 19:29N 31°26' E 121°29'0 0.0
2017-Nov-02 18:59N 31°26' E 121°29'0 0.0
2017-Nov-02 18:29N 31°26' E 121°29'0 0.0
2017-Nov-02 17:59N 31°26' E 121°29'0 0.1
2017-Nov-02 17:29N 31°26' E 121°29'0 0.0
2017-Nov-02 16:59N 31°26' E 121°29'0 0.0
2017-Nov-02 16:29N 31°26' E 121°29'0 0.0
2017-Nov-02 15:59N 31°26' E 121°29'0 0.0
2017-Nov-02 15:11N 31°26' E 121°29'0 0.0
2017-Nov-02 14:56N 31°26' E 121°29'0 0.0
2017-Nov-02 14:29N 31°26' E 121°29'0 0.0
2017-Nov-02 13:59N 31°26' E 121°29'0 0.0
2017-Nov-02 13:29N 31°26' E 121°29'0 0.0
2017-Nov-02 10:59N 31°26' E 121°29'0 0.0
2017-Nov-02 10:23N 31°26' E 121°29'0 0.0
2017-Nov-02 09:29N 31°26' E 121°29'0 0.1
2017-Nov-02 08:53N 31°26' E 121°29'0 0.0
2017-Nov-02 08:23N 31°26' E 121°29'0 0.0
2017-Nov-02 07:56N 31°26' E 121°29'0 0.0
2017-Nov-02 07:29N 31°26' E 121°29'0 0.0
2017-Nov-02 06:59N 31°26' E 121°29'0 0.0
2017-Nov-02 06:29N 31°26' E 121°29'0 0.0
2017-Nov-02 05:59N 31°26' E 121°29'0 0.0
2017-Nov-02 05:29N 31°26' E 121°29'0 0.1
2017-Nov-02 05:00N 31°26' E 121°29'3 5.8
2017-Nov-02 04:30N 31°24' E 121°32'5 9.4
2017-Nov-02 04:00N 31°23' E 121°37'5 9.3
2017-Nov-02 03:30N 31°20' E 121°41'5 9.2
2017-Nov-02 03:01N 31°17' E 121°45'713.7
2017-Nov-02 02:30N 31°11' E 121°50'612.3
2017-Nov-02 02:00N 31°08' E 121°56'611.2
2017-Nov-02 01:30N 31°05' E 122°01'611.1
2017-Nov-02 01:01N 31°03' E 122°08'710.3
2017-Nov-02 00:23N 31°03' E 122°15'5 9.4
2017-Nov-01 23:50N 31°02' E 122°21'2 4.8
2017-Nov-01 23:22N 31°02' E 122°24'4 7.6
2017-Nov-01 22:54N 31°01' E 122°28'611.6
2017-Nov-01 22:21N 30°60' E 122°35'11 0.2
2017-Oct-31 02:19N 31°05' E 122°47'611.8
2017-Oct-31 01:49N 31°06' E 122°53'512.2
2017-Oct-31 01:25N 31°06' E 122°59'712.1
2017-Oct-31 00:49N 31°07' E 123°07'412.1
2017-Oct-31 00:28N 31°08' E 123°12'  
Track history (hours):
 
Tides and Currents Weather Stations Pressure Air Temp Water Temp Dewpoint Dewpoint Depression Visibility Wind Speed Wind Dir Waves Ship Positions

Bungo Princess

Last reported at 2017-Nov-04 00:08 UTC. Time now 2017-Nov-18 17:53 UTC.
Position N 31°02' E 122°20'.
Warning: this ship's position is 14 days out of date.

Length 103 m; draft 6.3 m.

Type: Cargo ship. MMSI: 355074054.

Date/timePositionNaut miles runAvg speedWind from/ knotsBaromVisibWave heightAir tempDewpointWater temp
2017-Nov-04 00:08N 31°02' E 122°20'3 9.3
2017-Nov-03 23:49N 31°02' E 122°16'4 9.1
2017-Nov-03 23:26N 31°02' E 122°12'610.6
2017-Nov-03 22:54N 31°04' E 122°06'3 7.9
2017-Nov-03 22:30N 31°05' E 122°02'4 8.0
2017-Nov-03 22:01N 31°06' E 121°58'4 8.3
2017-Nov-03 21:30N 31°08' E 121°54'5 9.5
2017-Nov-03 21:00N 31°11' E 121°50'5 9.5
2017-Nov-03 20:30N 31°15' E 121°46'5 9.5
2017-Nov-03 20:00N 31°19' E 121°42'4 8.4
2017-Nov-03 19:31N 31°21' E 121°39'4 7.9
2017-Nov-03 19:00N 31°23' E 121°34'4 7.4
2017-Nov-03 18:31N 31°23' E 121°30'1 2.4
2017-Nov-03 18:00N 31°22' E 121°30'0 0.0
2017-Nov-03 17:28N 31°22' E 121°30'0 0.1
2017-Nov-03 17:01N 31°22' E 121°30'0 0.1
2017-Nov-03 16:28N 31°22' E 121°30'0 0.0
2017-Nov-03 15:58N 31°22' E 121°30'0 0.0
2017-Nov-03 15:16N 31°22' E 121°30'0 0.0
2017-Nov-03 14:55N 31°22' E 121°30'0 0.0
2017-Nov-03 14:31N 31°22' E 121°30'0 0.0
2017-Nov-03 13:58N 31°22' E 121°30'0 0.0
2017-Nov-03 13:28N 31°22' E 121°30'0 0.0
2017-Nov-03 13:01N 31°22' E 121°30'0 0.0
2017-Nov-03 12:25N 31°22' E 121°30'0 0.1
2017-Nov-03 11:52N 31°22' E 121°30'0 0.1
2017-Nov-03 11:22N 31°22' E 121°30'0 0.0
2017-Nov-03 10:58N 31°22' E 121°30'0 0.1
2017-Nov-03 10:28N 31°22' E 121°30'0 0.0
2017-Nov-03 09:52N 31°22' E 121°30'0 0.0
2017-Nov-03 09:25N 31°22' E 121°30'0 0.0
2017-Nov-03 08:58N 31°22' E 121°30'0 0.1
2017-Nov-03 08:22N 31°22' E 121°30'0 0.1
2017-Nov-03 07:58N 31°22' E 121°30'0 0.1
2017-Nov-03 07:28N 31°22' E 121°30'0 0.1
2017-Nov-03 06:58N 31°22' E 121°30'0 0.6
2017-Nov-03 06:30N 31°22' E 121°30'2 4.4
2017-Nov-03 06:00N 31°24' E 121°32'3 6.5
2017-Nov-03 05:30N 31°26' E 121°29'0 0.2
2017-Nov-03 04:59N 31°26' E 121°29'0 0.0
2017-Nov-03 04:29N 31°26' E 121°29'0 0.0
2017-Nov-03 03:59N 31°26' E 121°29'0 0.1
2017-Nov-03 03:29N 31°26' E 121°29'0 0.1
2017-Nov-03 02:59N 31°26' E 121°29'0 0.0
2017-Nov-03 02:29N 31°26' E 121°29'0 0.0
2017-Nov-03 01:59N 31°26' E 121°29'0 0.0
2017-Nov-03 01:29N 31°26' E 121°29'0 0.0
2017-Nov-03 00:29N 31°26' E 121°29'0 0.0
2017-Nov-02 23:56N 31°26' E 121°29'0 0.0
2017-Nov-02 23:29N 31°26' E 121°29'0 0.0
2017-Nov-02 22:56N 31°26' E 121°29'0 0.1
2017-Nov-02 22:29N 31°26' E 121°29'0 0.0
2017-Nov-02 21:59N 31°26' E 121°29'0 0.0
2017-Nov-02 21:29N 31°26' E 121°29'0 0.1
2017-Nov-02 20:56N 31°26' E 121°29'0 0.0
2017-Nov-02 20:29N 31°26' E 121°29'0 0.0
2017-Nov-02 19:59N 31°26' E 121°29'0 0.1
2017-Nov-02 19:29N 31°26' E 121°29'0 0.0
2017-Nov-02 18:59N 31°26' E 121°29'0 0.0
2017-Nov-02 18:29N 31°26' E 121°29'0 0.0
2017-Nov-02 17:59N 31°26' E 121°29'0 0.1
2017-Nov-02 17:29N 31°26' E 121°29'0 0.0
2017-Nov-02 16:59N 31°26' E 121°29'0 0.0
2017-Nov-02 16:29N 31°26' E 121°29'0 0.0
2017-Nov-02 15:59N 31°26' E 121°29'0 0.0
2017-Nov-02 15:11N 31°26' E 121°29'0 0.0
2017-Nov-02 14:56N 31°26' E 121°29'0 0.0
2017-Nov-02 14:29N 31°26' E 121°29'0 0.0
2017-Nov-02 13:59N 31°26' E 121°29'0 0.0
2017-Nov-02 13:29N 31°26' E 121°29'0 0.0
2017-Nov-02 10:59N 31°26' E 121°29'0 0.0
2017-Nov-02 10:23N 31°26' E 121°29'0 0.0
2017-Nov-02 09:29N 31°26' E 121°29'0 0.1
2017-Nov-02 08:53N 31°26' E 121°29'0 0.0
2017-Nov-02 08:23N 31°26' E 121°29'0 0.0
2017-Nov-02 07:56N 31°26' E 121°29'0 0.0
2017-Nov-02 07:29N 31°26' E 121°29'0 0.0
2017-Nov-02 06:59N 31°26' E 121°29'0 0.0
2017-Nov-02 06:29N 31°26' E 121°29'0 0.0
2017-Nov-02 05:59N 31°26' E 121°29'0 0.0
2017-Nov-02 05:29N 31°26' E 121°29'0 0.1
2017-Nov-02 05:00N 31°26' E 121°29'3 5.8
2017-Nov-02 04:30N 31°24' E 121°32'5 9.4
2017-Nov-02 04:00N 31°23' E 121°37'5 9.3
2017-Nov-02 03:30N 31°20' E 121°41'5 9.2
2017-Nov-02 03:01N 31°17' E 121°45'713.7
2017-Nov-02 02:30N 31°11' E 121°50'612.3
2017-Nov-02 02:00N 31°08' E 121°56'611.2
2017-Nov-02 01:30N 31°05' E 122°01'611.1
2017-Nov-02 01:01N 31°03' E 122°08'710.3
2017-Nov-02 00:23N 31°03' E 122°15'5 9.4
2017-Nov-01 23:50N 31°02' E 122°21'2 4.8
2017-Nov-01 23:22N 31°02' E 122°24'4 7.6
2017-Nov-01 22:54N 31°01' E 122°28'611.6
2017-Nov-01 22:21N 30°60' E 122°35'11 0.2
2017-Oct-31 02:19N 31°05' E 122°47'611.8
2017-Oct-31 01:49N 31°06' E 122°53'512.2
2017-Oct-31 01:25N 31°06' E 122°59'712.1
2017-Oct-31 00:49N 31°07' E 123°07'412.1
2017-Oct-31 00:28N 31°08' E 123°12'  

Dump ship's entire track history